createdAt,value
2017-01-25T00:00:02.675Z,0
2017-01-25T00:05:03.045Z,0
2017-01-25T00:10:03.094Z,0
2017-01-25T00:15:03.149Z,0
2017-01-25T00:20:02.934Z,0
2017-01-25T00:25:02.551Z,0
2017-01-25T00:30:02.483Z,0
2017-01-25T00:35:03.295Z,0
2017-01-25T00:40:03.031Z,0
2017-01-25T00:45:02.901Z,0
2017-01-25T00:50:02.697Z,0
2017-01-25T00:55:02.531Z,0
2017-01-25T01:00:02.515Z,0
2017-01-25T01:05:03.403Z,0
2017-01-25T01:10:03.024Z,0
2017-01-25T01:15:02.906Z,0
2017-01-25T01:20:02.918Z,0
2017-01-25T01:25:02.733Z,0
2017-01-25T01:30:02.560Z,0
2017-01-25T01:35:03.203Z,0
2017-01-25T01:40:03.003Z,0
2017-01-25T01:45:02.984Z,0
2017-01-25T01:50:02.859Z,0
2017-01-25T01:55:02.489Z,0
2017-01-25T02:00:03.102Z,0
2017-01-25T02:05:02.865Z,0
2017-01-25T02:10:02.885Z,0
2017-01-25T02:15:02.678Z,0
2017-01-25T02:20:02.568Z,0
2017-01-25T02:25:03.261Z,0
2017-01-25T02:30:02.924Z,0
2017-01-25T02:35:02.587Z,0
2017-01-25T02:40:03.480Z,0
2017-01-25T02:45:03.037Z,0
2017-01-25T02:50:02.802Z,0
2017-01-25T02:55:02.758Z,0
2017-01-25T03:00:02.517Z,0
2017-01-25T03:05:03.466Z,0
2017-01-25T03:10:03.198Z,0
2017-01-25T03:15:03.026Z,0
2017-01-25T03:20:03.017Z,0
2017-01-25T03:25:02.624Z,0
2017-01-25T03:30:03.372Z,0
2017-01-25T03:35:03.167Z,0
2017-01-25T03:40:02.978Z,0
2017-01-25T03:45:02.737Z,0
2017-01-25T03:50:02.557Z,0
2017-01-25T03:55:03.208Z,0
2017-01-25T04:00:03.047Z,0
2017-01-25T04:05:02.747Z,0
2017-01-25T04:10:02.778Z,0
2017-01-25T04:15:03.514Z,0
2017-01-25T04:20:03.162Z,0
2017-01-25T04:25:03.156Z,0
2017-01-25T04:30:02.879Z,0
2017-01-25T04:35:02.534Z,0
2017-01-25T04:40:03.252Z,0
2017-01-25T04:45:02.863Z,0
2017-01-25T04:50:02.673Z,0
2017-01-25T04:55:03.726Z,0
2017-01-25T05:00:03.677Z,0
2017-01-25T05:05:03.490Z,0
2017-01-25T05:10:03.373Z,0
2017-01-25T05:15:03.292Z,0
2017-01-25T05:20:03.093Z,0
2017-01-25T05:25:02.799Z,0
2017-01-25T05:30:03.167Z,0
2017-01-25T05:35:03.194Z,0
2017-01-25T05:40:02.926Z,0
2017-01-25T05:45:02.659Z,0
2017-01-25T05:50:03.345Z,0
2017-01-25T05:55:03.085Z,0
2017-01-25T06:00:02.997Z,0
2017-01-25T06:05:02.893Z,0
2017-01-25T06:10:02.891Z,0
2017-01-25T06:15:02.747Z,0
2017-01-25T06:20:02.606Z,0
2017-01-25T06:25:03.400Z,0
2017-01-25T06:30:03.436Z,0
2017-01-25T06:35:03.203Z,0
2017-01-25T06:40:02.997Z,0
2017-01-25T06:45:02.674Z,0
2017-01-25T06:50:02.947Z,1
2017-01-25T06:55:02.528Z,3
2017-01-25T07:00:03.345Z,7
2017-01-25T07:05:03.144Z,16
2017-01-25T07:10:02.970Z,27
2017-01-25T07:15:02.558Z,48
2017-01-25T07:20:03.223Z,60
2017-01-25T07:25:02.913Z,71
2017-01-25T07:30:02.582Z,105
2017-01-25T07:35:02.598Z,139
2017-01-25T07:40:03.376Z,267
2017-01-25T07:45:03.367Z,344
2017-01-25T07:50:03.210Z,371
2017-01-25T07:55:02.982Z,447
2017-01-25T08:00:02.726Z,467
2017-01-25T08:05:02.525Z,555
2017-01-25T08:10:02.581Z,626
2017-01-25T08:15:03.294Z,670
2017-01-25T08:20:03.225Z,735
2017-01-25T08:25:03.286Z,800
2017-01-25T08:30:02.942Z,938
2017-01-25T08:35:02.805Z,978
2017-01-25T08:40:02.772Z,1000
2017-01-25T08:45:03.397Z,1000
2017-01-25T08:50:03.279Z,1000
2017-01-25T08:55:03.010Z,1000
2017-01-25T09:00:02.848Z,1000
2017-01-25T09:05:02.628Z,1000
2017-01-25T09:10:03.318Z,1000
2017-01-25T09:15:03.018Z,2000
2017-01-25T09:20:02.747Z,2000
2017-01-25T09:25:02.593Z,2000
2017-01-25T09:30:02.473Z,2000
2017-01-25T09:35:03.251Z,2000
2017-01-25T09:40:03.088Z,2000
2017-01-25T09:45:02.852Z,3000
2017-01-25T09:50:03.508Z,3000
2017-01-25T09:55:03.426Z,3000
2017-01-25T10:00:03.101Z,3000
2017-01-25T10:05:02.828Z,3000
2017-01-25T10:10:03.325Z,4000
2017-01-25T10:15:02.983Z,5000
2017-01-25T10:20:02.860Z,6000
2017-01-25T10:25:02.643Z,6000
2017-01-25T10:30:02.660Z,3000
2017-01-25T10:35:03.389Z,3000
2017-01-25T10:40:02.699Z,3000
2017-01-25T10:45:03.457Z,3000
2017-01-25T10:50:02.555Z,3000
2017-01-25T10:55:03.215Z,3000
2017-01-25T11:00:03.214Z,3000
2017-01-25T11:05:02.962Z,3000
2017-01-25T11:10:02.767Z,4000
2017-01-25T11:15:02.514Z,4000
2017-01-25T11:20:03.341Z,4000
2017-01-25T11:25:03.040Z,3000
2017-01-25T11:30:03.323Z,3000
2017-01-25T11:35:03.401Z,4000
2017-01-25T11:40:03.062Z,4000
2017-01-25T11:45:02.483Z,5000
2017-01-25T11:50:02.709Z,4000
2017-01-25T11:55:03.141Z,4000
2017-01-25T12:00:02.648Z,4000
2017-01-25T12:05:02.701Z,5000
2017-01-25T12:10:02.680Z,5000
2017-01-25T12:15:03.061Z,7000
2017-01-25T12:20:03.166Z,8000
2017-01-25T12:25:03.108Z,6000
2017-01-25T12:30:02.945Z,6000
2017-01-25T12:35:02.620Z,8000
2017-01-25T12:40:02.560Z,13000
2017-01-25T12:45:03.346Z,12000
2017-01-25T12:50:03.228Z,8000
2017-01-25T12:55:02.607Z,9000
2017-01-25T13:00:03.088Z,10000
2017-01-25T13:05:03.255Z,10000
2017-01-25T13:10:03.444Z,9000
2017-01-25T13:15:02.835Z,8000
2017-01-25T13:20:02.985Z,6000
2017-01-25T13:25:03.402Z,6000
2017-01-25T13:30:03.390Z,5000
2017-01-25T13:35:02.923Z,4000
2017-01-25T13:40:02.660Z,5000
2017-01-25T13:45:03.345Z,4000
2017-01-25T13:50:02.821Z,5000
2017-01-25T13:55:02.667Z,4000
2017-01-25T14:00:02.532Z,6000
2017-01-25T14:05:03.140Z,5000
2017-01-25T14:10:02.751Z,4000
2017-01-25T14:15:02.514Z,4000
2017-01-25T14:20:02.691Z,7000
2017-01-25T14:25:02.615Z,4000
2017-01-25T14:30:03.227Z,4000
2017-01-25T14:35:02.655Z,4000
2017-01-25T14:40:03.228Z,6000
2017-01-25T14:45:03.351Z,8000
2017-01-25T14:50:02.479Z,4000
2017-01-25T14:55:02.610Z,3000
2017-01-25T15:00:03.034Z,2000
2017-01-25T15:05:02.869Z,2000
2017-01-25T15:10:02.768Z,2000
2017-01-25T15:15:03.339Z,2000
2017-01-25T15:20:02.945Z,1000
2017-01-25T15:25:03.228Z,1000
2017-01-25T15:30:02.828Z,1000
2017-01-25T15:35:02.777Z,1000
2017-01-25T15:40:03.047Z,1000
2017-01-25T15:45:02.949Z,911
2017-01-25T15:50:02.541Z,712
2017-01-25T15:55:03.208Z,606
2017-01-25T16:00:02.828Z,479
2017-01-25T16:05:03.272Z,364
2017-01-25T16:10:02.923Z,265
2017-01-25T16:15:02.989Z,136
2017-01-25T16:20:03.444Z,80
2017-01-25T16:25:02.938Z,64
2017-01-25T16:30:03.385Z,41
2017-01-25T16:35:02.705Z,24
2017-01-25T16:40:02.534Z,12
2017-01-25T16:45:02.715Z,5
2017-01-25T16:50:02.797Z,2
2017-01-25T16:55:02.835Z,0
2017-01-25T17:00:02.788Z,0
2017-01-25T17:05:03.441Z,0
2017-01-25T17:10:03.167Z,0
2017-01-25T17:15:02.917Z,0
2017-01-25T17:20:02.609Z,0
2017-01-25T17:25:02.578Z,0
2017-01-25T17:30:03.234Z,0
2017-01-25T17:35:02.942Z,0
2017-01-25T17:40:03.194Z,0
2017-01-25T17:45:03.352Z,0
2017-01-25T17:50:03.369Z,0
2017-01-25T17:55:02.978Z,0
2017-01-25T18:00:02.930Z,0
2017-01-25T18:05:02.733Z,0
2017-01-25T18:10:02.752Z,0
2017-01-25T18:15:02.797Z,0
2017-01-25T18:20:02.589Z,0
2017-01-25T18:25:02.514Z,0
2017-01-25T18:30:03.288Z,0
2017-01-25T18:35:03.372Z,0
2017-01-25T18:40:03.106Z,0
2017-01-25T18:45:02.694Z,0
2017-01-25T18:50:03.512Z,0
2017-01-25T18:55:03.225Z,0
2017-01-25T19:00:03.366Z,0
2017-01-25T19:05:03.070Z,0
2017-01-25T19:10:02.977Z,0
2017-01-25T19:15:02.753Z,0
2017-01-25T19:20:02.472Z,0
2017-01-25T19:25:03.209Z,0
2017-01-25T19:30:02.993Z,0
2017-01-25T19:35:02.560Z,0
2017-01-25T19:40:03.240Z,0
2017-01-25T19:45:02.998Z,0
2017-01-25T19:50:02.848Z,0
2017-01-25T19:55:02.748Z,0
2017-01-25T20:00:02.600Z,0
2017-01-25T20:05:02.684Z,0
2017-01-25T20:10:02.484Z,0
2017-01-25T20:15:03.389Z,0
2017-01-25T20:20:03.048Z,0
2017-01-25T20:25:02.797Z,0
2017-01-25T20:30:03.536Z,0
2017-01-25T20:35:03.292Z,0
2017-01-25T20:40:03.122Z,0
2017-01-25T20:45:03.035Z,0
2017-01-25T20:50:02.989Z,0
2017-01-25T20:55:02.819Z,0
2017-01-25T21:00:02.609Z,0
2017-01-25T21:05:03.305Z,0
2017-01-25T21:10:03.116Z,0
2017-01-25T21:15:03.013Z,0
2017-01-25T21:20:02.766Z,0
2017-01-25T21:25:02.715Z,0
2017-01-25T21:30:02.553Z,0
2017-01-25T21:35:03.354Z,0
2017-01-25T21:40:03.340Z,0
2017-01-25T21:45:03.180Z,0
2017-01-25T21:50:02.772Z,0
2017-01-25T21:55:02.530Z,0
2017-01-25T22:00:02.563Z,0
2017-01-25T22:05:02.451Z,0
2017-01-25T22:10:03.183Z,0
2017-01-25T22:15:02.883Z,0
2017-01-25T22:20:02.722Z,0
2017-01-25T22:25:02.626Z,0
2017-01-25T22:30:03.326Z,0
2017-01-25T22:35:03.249Z,0
2017-01-25T22:40:02.889Z,0
2017-01-25T22:45:02.636Z,0
2017-01-25T22:50:03.319Z,0
2017-01-25T22:55:03.296Z,0
2017-01-25T23:00:02.950Z,0
2017-01-25T23:05:02.841Z,0
2017-01-25T23:10:02.767Z,0
2017-01-25T23:15:02.716Z,0
2017-01-25T23:20:02.526Z,0
2017-01-25T23:25:02.495Z,0
2017-01-25T23:30:03.301Z,0
2017-01-25T23:35:03.154Z,0
2017-01-25T23:40:02.899Z,0
2017-01-25T23:45:02.843Z,0
2017-01-25T23:50:02.613Z,0
2017-01-25T23:55:02.657Z,0
